createdAt,value
2023-01-13T00:00:04.897Z,4.50
2023-01-13T00:05:12.328Z,4.50
2023-01-13T00:10:19.803Z,4.60
2023-01-13T00:15:26.934Z,4.60
2023-01-13T00:20:33.639Z,4.80
2023-01-13T00:25:40.818Z,4.90
2023-01-13T00:30:47.538Z,4.80
2023-01-13T00:36:02.645Z,4.90
2023-01-13T00:41:13.887Z,4.80
2023-01-13T00:46:23.571Z,4.70
2023-01-13T00:51:30.739Z,4.70
2023-01-13T00:56:40.816Z,4.50
2023-01-13T01:01:46.441Z,4.40
2023-01-13T01:06:53.962Z,4.30
2023-01-13T01:12:02.705Z,4.10
2023-01-13T01:17:09.785Z,4.00
2023-01-13T01:22:16.461Z,4.00
2023-01-13T01:27:23.308Z,4.00
2023-01-13T01:32:30.483Z,4.10
2023-01-13T01:37:37.278Z,4.10
2023-01-13T01:43:02.306Z,4.20
2023-01-13T01:48:10.915Z,4.20
2023-01-13T01:53:20.681Z,4.30
2023-01-13T01:58:34.626Z,4.20
2023-01-13T02:03:45.819Z,4.20
2023-01-13T02:08:54.032Z,4.30
2023-01-13T02:14:01.372Z,4.30
2023-01-13T02:19:21.466Z,4.30
2023-01-13T02:25:01.615Z,4.30
2023-01-13T02:30:36.173Z,4.40
2023-01-13T02:35:56.164Z,4.40
2023-01-13T02:41:33.199Z,4.50
2023-01-13T02:47:07.859Z,4.50
2023-01-13T02:52:37.058Z,4.40
2023-01-13T02:57:45.478Z,4.40
2023-01-13T03:02:52.203Z,4.40
2023-01-13T03:08:41.029Z,4.50
2023-01-13T03:14:06.733Z,4.40
2023-01-13T03:19:29.918Z,4.30
2023-01-13T03:24:53.000Z,4.30
2023-01-13T03:30:24.580Z,4.20
2023-01-13T03:35:38.223Z,4.30
2023-01-13T03:40:51.942Z,4.40
2023-01-13T03:46:03.248Z,4.50
2023-01-13T03:51:14.663Z,4.90
2023-01-13T03:56:34.348Z,4.60
2023-01-13T04:02:06.145Z,4.50
2023-01-13T04:07:31.873Z,4.60
2023-01-13T04:13:05.370Z,4.50
2023-01-13T04:18:30.819Z,4.60
2023-01-13T04:23:37.741Z,4.60
2023-01-13T04:28:44.472Z,4.70
2023-01-13T04:33:51.136Z,4.80
2023-01-13T04:38:57.943Z,4.70
2023-01-13T04:44:04.655Z,4.50
2023-01-13T04:49:11.379Z,4.40
2023-01-13T04:54:18.125Z,4.30
2023-01-13T04:59:25.143Z,4.20
2023-01-13T05:04:32.675Z,4.30
2023-01-13T05:09:39.344Z,4.40
2023-01-13T05:15:03.833Z,4.50
2023-01-13T05:20:10.499Z,4.60
2023-01-13T05:25:23.289Z,4.70
2023-01-13T05:30:37.078Z,4.60
2023-01-13T05:35:44.113Z,4.60
2023-01-13T05:41:07.549Z,4.60
2023-01-13T05:46:15.277Z,4.70
2023-01-13T05:51:23.581Z,4.90
2023-01-13T05:56:30.324Z,4.90
2023-01-13T06:01:37.697Z,4.90
2023-01-13T06:06:45.213Z,5.00
2023-01-13T06:11:52.043Z,5.00
2023-01-13T06:16:58.784Z,4.80
2023-01-13T06:22:18.093Z,4.70
2023-01-13T06:27:25.362Z,4.60
2023-01-13T06:32:39.209Z,4.60
2023-01-13T06:37:47.166Z,4.40
2023-01-13T06:43:15.933Z,4.50
2023-01-13T06:48:28.587Z,4.50
2023-01-13T06:53:35.346Z,4.40
2023-01-13T06:58:42.025Z,4.50
2023-01-13T07:03:48.607Z,4.60
2023-01-13T07:08:55.278Z,4.70
2023-01-13T07:14:21.254Z,4.80
2023-01-13T07:19:27.949Z,4.90
2023-01-13T07:24:35.450Z,4.90
2023-01-13T07:29:42.180Z,4.90
2023-01-13T07:34:49.071Z,5.00
2023-01-13T07:39:55.775Z,5.30
2023-01-13T07:45:02.832Z,5.30
2023-01-13T07:50:10.882Z,5.30
2023-01-13T07:55:18.445Z,5.30
2023-01-13T08:00:25.829Z,5.30
2023-01-13T08:05:32.611Z,5.20
2023-01-13T08:10:39.309Z,5.10
2023-01-13T08:15:46.822Z,5.40
2023-01-13T08:20:54.311Z,5.50
2023-01-13T08:26:06.851Z,5.60
2023-01-13T08:31:17.332Z,5.60
2023-01-13T08:36:25.854Z,5.40
2023-01-13T08:41:50.230Z,5.50
2023-01-13T08:46:57.556Z,5.70
2023-01-13T08:52:04.999Z,5.90
2023-01-13T08:57:11.742Z,6.00
2023-01-13T09:02:24.010Z,5.60
2023-01-13T09:07:31.298Z,5.60
2023-01-13T09:12:55.899Z,5.80
2023-01-13T09:18:02.998Z,6.00
2023-01-13T09:23:11.338Z,6.20
2023-01-13T09:28:18.235Z,6.10
2023-01-13T09:33:42.368Z,5.90
2023-01-13T09:38:50.830Z,5.90
2023-01-13T09:44:00.500Z,5.90
2023-01-13T09:49:08.723Z,6.00
2023-01-13T09:54:32.561Z,5.80
2023-01-13T09:59:39.695Z,5.70
2023-01-13T10:04:48.083Z,6.00
2023-01-13T10:09:55.881Z,6.30
2023-01-13T10:15:02.538Z,6.40
2023-01-13T10:20:28.521Z,6.40
2023-01-13T10:26:14.218Z,6.50
2023-01-13T10:31:23.427Z,6.40
2023-01-13T10:36:30.737Z,6.50
2023-01-13T10:41:37.685Z,6.60
2023-01-13T10:46:59.576Z,6.90
2023-01-13T10:52:10.268Z,6.90
2023-01-13T10:57:28.513Z,7.10
2023-01-13T11:02:37.130Z,7.30
2023-01-13T11:07:52.014Z,7.50
2023-01-13T11:13:09.268Z,7.50
2023-01-13T11:18:38.155Z,7.40
2023-01-13T11:23:49.694Z,7.50
2023-01-13T11:29:09.432Z,7.50
2023-01-13T11:34:26.376Z,7.60
2023-01-13T11:39:56.526Z,7.50
2023-01-13T11:45:19.206Z,7.70
2023-01-13T11:50:44.781Z,7.60
2023-01-13T11:56:20.755Z,7.60
2023-01-13T12:02:11.225Z,7.70
2023-01-13T12:07:39.916Z,7.70
2023-01-13T12:12:58.360Z,7.70
2023-01-13T12:18:30.590Z,7.70
2023-01-13T12:24:16.260Z,7.70
2023-01-13T12:29:35.802Z,7.70
2023-01-13T12:35:20.000Z,7.60
2023-01-13T12:40:59.331Z,7.70
2023-01-13T12:46:25.884Z,7.60
2023-01-13T12:51:54.628Z,7.80
2023-01-13T12:57:02.854Z,7.60
2023-01-13T13:02:20.301Z,7.50
2023-01-13T13:07:40.724Z,7.70
2023-01-13T13:13:09.492Z,7.50
2023-01-13T13:18:27.605Z,7.60
2023-01-13T13:23:45.739Z,7.70
2023-01-13T13:29:36.333Z,7.70
2023-01-13T13:35:11.394Z,7.60
2023-01-13T13:40:34.667Z,7.60
2023-01-13T13:46:01.742Z,7.50
2023-01-13T13:51:32.696Z,7.30
2023-01-13T13:56:44.103Z,7.10
2023-01-13T14:01:59.505Z,7.20
2023-01-13T14:07:21.043Z,7.10
2023-01-13T14:12:31.600Z,7.20
2023-01-13T14:17:38.519Z,7.00
2023-01-13T14:22:50.921Z,6.90
2023-01-13T14:28:02.341Z,6.80
2023-01-13T14:33:12.573Z,6.80
2023-01-13T14:38:19.392Z,6.80
2023-01-13T14:43:28.249Z,6.60
2023-01-13T14:48:37.042Z,6.70
2023-01-13T14:53:48.380Z,6.50
2023-01-13T14:58:55.616Z,6.40
2023-01-13T15:04:27.473Z,6.50
2023-01-13T15:09:45.561Z,6.30
2023-01-13T15:14:53.499Z,6.30
2023-01-13T15:20:01.828Z,6.10
2023-01-13T15:25:12.908Z,6.10
2023-01-13T15:30:25.547Z,6.00
2023-01-13T15:35:32.792Z,6.00
2023-01-13T15:40:39.901Z,6.00
2023-01-13T15:46:05.724Z,5.90
2023-01-13T15:51:14.879Z,5.90
2023-01-13T15:56:27.693Z,5.80
2023-01-13T16:01:34.587Z,5.70
2023-01-13T16:06:41.673Z,5.60
2023-01-13T16:11:48.697Z,5.70
2023-01-13T16:16:55.625Z,5.70
2023-01-13T16:22:03.207Z,5.70
2023-01-13T16:27:25.777Z,5.70
2023-01-13T16:32:32.976Z,5.80
2023-01-13T16:37:40.126Z,5.80
2023-01-13T16:42:46.907Z,5.70
2023-01-13T16:47:54.218Z,5.90
2023-01-13T16:53:00.874Z,5.80
2023-01-13T16:58:08.709Z,5.70
2023-01-13T17:03:17.643Z,5.90
2023-01-13T17:08:25.404Z,5.70
2023-01-13T17:13:32.540Z,5.60
2023-01-13T17:18:39.361Z,5.60
2023-01-13T17:23:46.458Z,5.50
2023-01-13T17:28:53.253Z,5.70
2023-01-13T17:33:59.954Z,5.60
2023-01-13T17:39:07.193Z,5.60
2023-01-13T17:44:21.522Z,5.60
2023-01-13T17:49:28.229Z,5.60
2023-01-13T17:54:35.772Z,5.50
2023-01-13T17:59:43.148Z,5.60
2023-01-13T18:04:49.868Z,5.60
2023-01-13T18:09:56.550Z,5.50
2023-01-13T18:15:03.261Z,5.50
2023-01-13T18:20:30.995Z,5.60
2023-01-13T18:25:55.307Z,5.40
2023-01-13T18:31:01.973Z,5.60
2023-01-13T18:36:10.601Z,5.60
2023-01-13T18:41:34.735Z,5.60
2023-01-13T18:46:43.730Z,5.60
2023-01-13T18:51:51.291Z,5.40
2023-01-13T18:56:58.218Z,5.50
2023-01-13T19:02:07.864Z,5.60
2023-01-13T19:07:17.153Z,5.60
2023-01-13T19:12:26.963Z,5.70
2023-01-13T19:17:36.829Z,5.50
2023-01-13T19:22:46.061Z,5.30
2023-01-13T19:27:52.844Z,5.40
2023-01-13T19:32:59.551Z,5.60
2023-01-13T19:38:06.411Z,5.60
2023-01-13T19:43:30.812Z,5.50
2023-01-13T19:48:36.465Z,5.70
2023-01-13T19:53:43.737Z,5.60
2023-01-13T19:58:51.147Z,5.60
2023-01-13T20:03:59.660Z,5.70
2023-01-13T20:09:06.574Z,5.80
2023-01-13T20:14:13.886Z,5.80
2023-01-13T20:19:20.823Z,5.90
2023-01-13T20:24:27.586Z,6.00
2023-01-13T20:29:35.532Z,6.20
2023-01-13T20:34:43.508Z,6.40
2023-01-13T20:39:50.596Z,6.40
2023-01-13T20:45:03.583Z,6.40
2023-01-13T20:50:12.175Z,6.50
2023-01-13T20:55:19.021Z,6.40
2023-01-13T21:00:28.431Z,6.30
2023-01-13T21:05:38.721Z,6.20
2023-01-13T21:10:46.081Z,6.20
2023-01-13T21:15:54.500Z,6.20
2023-01-13T21:21:13.389Z,6.10
2023-01-13T21:26:22.507Z,6.00
2023-01-13T21:31:30.275Z,6.00
2023-01-13T21:36:37.122Z,6.10
2023-01-13T21:42:01.561Z,6.10
2023-01-13T21:47:35.675Z,6.20
2023-01-13T21:52:44.242Z,6.10
2023-01-13T21:58:01.335Z,6.10
2023-01-13T22:03:10.644Z,6.10
2023-01-13T22:08:18.042Z,6.10
2023-01-13T22:13:42.812Z,6.00
2023-01-13T22:18:49.798Z,5.80
2023-01-13T22:23:57.140Z,5.60
2023-01-13T22:29:04.529Z,5.50
2023-01-13T22:34:14.174Z,5.50
2023-01-13T22:39:21.359Z,5.20
2023-01-13T22:44:28.338Z,5.20
2023-01-13T22:49:35.693Z,5.20
2023-01-13T22:54:42.614Z,5.20
2023-01-13T22:59:50.372Z,5.20
2023-01-13T23:04:57.200Z,5.20
2023-01-13T23:10:04.012Z,5.10
2023-01-13T23:15:11.631Z,5.10
2023-01-13T23:20:19.708Z,4.90
2023-01-13T23:25:27.374Z,4.90
2023-01-13T23:30:34.057Z,4.60
2023-01-13T23:35:41.484Z,4.50
2023-01-13T23:40:48.645Z,4.50
2023-01-13T23:46:11.530Z,4.40
2023-01-13T23:51:20.912Z,4.50
2023-01-13T23:56:32.817Z,4.20
